Time;durP1;ratioP1;P1;durP2;ratioP2;P2;SDS_P1;SDS_P2;PMS_P1;PMS_P2;Temp;Humidity;BMP_temperature;BMP_pressure;BME280_temperature;BME280_humidity;BME280_pressure;Samples;Min_cycle;Max_cycle;Signal;HPM_P1;HPM_P2
2022/09/01 00:02:26;;;;;;;2.13;0.80;;;13.70;99.90;;;;;;5094650;28;20036;-65
2022/09/01 00:04:57;;;;;;;1.80;0.70;;;13.60;99.90;;;;;;5095697;28;20032;-65
2022/09/01 00:07:25;;;;;;;0.65;0.60;;;13.60;99.90;;;;;;5094378;28;20036;-65
2022/09/01 00:09:50;;;;;;;0.98;0.88;;;13.60;1.00;;;;;;5095805;28;20055;-65
2022/09/01 00:12:17;;;;;;;1.20;0.80;;;13.70;1.00;;;;;;5095773;28;20399;-65
2022/09/01 00:14:43;;;;;;;1.10;0.85;;;13.70;99.90;;;;;;5094260;28;20086;-65
2022/09/01 00:17:10;;;;;;;1.15;0.70;;;13.60;1.00;;;;;;5095729;28;20084;-65
2022/09/01 00:19:36;;;;;;;1.83;1.05;;;13.60;99.90;;;;;;5093935;28;20048;-65
2022/09/01 00:22:03;;;;;;;2.10;0.80;;;13.60;99.90;;;;;;5095629;28;20086;-65
2022/09/01 00:24:29;;;;;;;1.30;0.88;;;13.50;1.00;;;;;;5093969;28;20119;-65
2022/09/01 00:26:56;;;;;;;0.70;0.70;;;13.50;99.90;;;;;;5095211;28;20155;-65
2022/09/01 00:29:22;;;;;;;1.38;0.80;;;14.30;99.90;;;;;;5095421;28;20085;-66
2022/09/01 00:31:49;;;;;;;0.70;0.60;;;13.50;1.00;;;;;;5095366;28;20397;-65
2022/09/01 00:34:15;;;;;;;0.80;0.57;;;13.50;72.00;;;;;;5093844;28;20093;-65
2022/09/01 00:36:41;;;;;;;1.25;0.80;;;13.50;99.90;;;;;;5095334;28;20507;-65
2022/09/01 00:39:07;;;;;;;2.15;0.90;;;13.60;99.90;;;;;;5094928;28;20048;-65
2022/09/01 00:41:37;;;;;;;2.92;0.63;;;13.50;99.90;;;;;;5095116;28;20066;-65
2022/09/01 00:44:10;;;;;;;0.60;0.60;;;13.50;99.90;;;;;;5094937;28;20395;-65
2022/09/01 00:46:43;;;;;;;1.23;0.73;;;13.50;99.90;;;;;;5095099;28;20108;-65
2022/09/01 00:49:16;;;;;;;1.17;0.80;;;13.50;99.90;;;;;;5095131;28;20062;-65
2022/09/01 00:51:47;;;;;;;1.00;0.60;;;13.40;99.90;;;;;;5093816;28;20083;-65
2022/09/01 00:54:18;;;;;;;0.40;0.40;;;13.40;99.90;;;;;;5095045;28;20407;-65
2022/09/01 00:56:45;;;;;;;1.15;0.73;;;13.40;99.90;;;;;;5094912;28;20076;-65
2022/09/01 00:59:12;;;;;;;1.65;0.65;;;13.40;14.00;;;;;;5094880;28;20036;-66
2022/09/01 01:01:38;;;;;;;1.08;0.98;;;13.30;23.70;;;;;;5094782;28;20578;-65
2022/09/01 01:04:13;;;;;;;0.73;0.65;;;13.30;99.90;;;;;;5094828;28;20487;-65
2022/09/01 01:06:41;;;;;;;1.05;0.70;;;13.30;99.30;;;;;;5094386;28;20040;-65
2022/09/01 01:09:07;;;;;;;1.00;0.75;;;13.50;75.60;;;;;;5094288;28;20032;-65
2022/09/01 01:11:33;;;;;;;0.93;0.70;;;13.30;93.70;;;;;;5094338;28;20036;-65
2022/09/01 01:14:10;;;;;;;1.05;0.70;;;13.20;91.40;;;;;;5093978;28;20526;-65
2022/09/01 01:16:43;;;;;;;0.55;0.47;;;13.20;99.90;;;;;;5094538;28;20051;-65
2022/09/01 01:23:04;;;;;;;0.70;0.60;;;13.10;99.90;;;;;;5094370;28;20150;-65
2022/09/01 01:25:43;;;;;;;1.17;0.70;;;13.10;99.90;;;;;;5094316;28;20395;-65
2022/09/01 01:28:15;;;;;;;0.80;0.70;;;13.10;99.90;;;;;;5092818;28;20047;-65
2022/09/01 01:30:47;;;;;;;0.82;0.80;;;13.10;99.90;;;;;;5094280;28;20036;-65
2022/09/01 01:33:13;;;;;;;0.77;0.57;;;13.10;99.90;;;;;;5094239;28;20054;-65
2022/09/01 01:35:41;;;;;;;1.20;0.70;;;13.10;1.00;;;;;;5094146;28;20456;-65
2022/09/01 01:38:06;;;;;;;1.08;0.70;;;13.10;99.90;;;;;;5094104;28;20376;-65
2022/09/01 01:40:32;;;;;;;1.27;0.93;;;13.00;99.90;;;;;;5093979;28;20073;-65
2022/09/01 01:43:00;;;;;;;1.73;0.95;;;13.00;99.90;;;;;;5092810;28;20399;-65
2022/09/01 01:45:29;;;;;;;1.27;0.80;;;13.00;99.90;;;;;;5093798;28;20055;-65
2022/09/01 01:47:55;;;;;;;1.02;0.73;;;13.30;99.90;;;;;;5092930;28;20040;-65
2022/09/01 01:50:34;;;;;;;0.90;0.75;;;12.90;99.90;;;;;;5093633;28;20092;-65
2022/09/01 01:53:03;;;;;;;0.70;0.70;;;12.90;99.90;;;;;;5092333;28;20044;-65
2022/09/01 01:55:30;;;;;;;0.85;0.75;;;12.90;99.90;;;;;;5098624;22;20497;-74
2022/09/01 01:57:57;;;;;;;1.13;0.93;;;14.10;99.90;;;;;;5031416;28;20053;-72
2022/09/01 02:00:27;;;;;;;0.80;0.63;;;13.60;99.90;;;;;;5032205;28;20454;-76
2022/09/01 02:02:53;;;;;;;1.52;0.80;;;12.80;99.90;;;;;;5015849;28;20048;-72
2022/09/01 02:05:28;;;;;;;0.68;0.60;;;12.80;99.90;;;;;;5032162;28;20135;-74
2022/09/01 02:07:58;;;;;;;1.67;0.80;;;12.80;99.90;;;;;;5015952;28;20042;-74
2022/09/01 02:10:30;;;;;;;1.35;0.73;;;12.70;1.00;;;;;;5016055;28;20400;-74
2022/09/01 02:13:02;;;;;;;2.50;0.77;;;12.70;99.90;;;;;;5032361;28;20095;-73
2022/09/01 02:15:28;;;;;;;1.05;0.70;;;12.70;99.90;;;;;;5032307;28;20045;-75
2022/09/01 02:17:58;;;;;;;1.10;0.77;;;12.70;99.90;;;;;;4999312;28;20128;-74
2022/09/01 02:20:28;;;;;;;1.17;0.75;;;12.70;1.00;;;;;;5016546;28;20042;-70
2022/09/01 02:22:54;;;;;;;1.20;0.80;;;12.70;99.90;;;;;;5032098;28;20088;-70
2022/09/01 02:25:22;;;;;;;1.48;0.88;;;12.70;1.00;;;;;;5015099;28;20042;-74
2022/09/01 02:27:52;;;;;;;0.90;0.73;;;12.70;99.90;;;;;;5031816;28;20052;-71
2022/09/01 02:30:18;;;;;;;2.05;0.80;;;12.70;29.40;;;;;;5032231;28;20041;-71
2022/09/01 02:32:44;;;;;;;1.75;0.90;;;12.70;1.00;;;;;;5032074;28;20041;-70
2022/09/01 02:35:10;;;;;;;1.75;1.10;;;12.60;1.00;;;;;;5031754;28;20049;-75
2022/09/01 02:37:38;;;;;;;2.42;1.00;;;12.60;99.90;;;;;;5015338;28;20155;-75
2022/09/01 02:40:09;;;;;;;0.60;0.60;;;12.80;99.90;;;;;;5015474;28;20041;-73
2022/09/01 02:42:39;;;;;;;1.30;1.10;;;12.60;99.90;;;;;;4999517;28;20053;-74
2022/09/01 02:45:14;;;;;;;0.85;0.68;;;12.60;1.00;;;;;;5032051;28;20044;-71
2022/09/01 02:47:42;;;;;;;1.10;0.75;;;12.70;99.90;;;;;;5015159;28;20037;-74
2022/09/01 02:50:12;;;;;;;1.83;0.80;;;12.70;99.90;;;;;;5032205;28;20124;-75
2022/09/01 02:52:39;;;;;;;0.95;0.80;;;12.60;99.90;;;;;;4999558;28;20048;-71
2022/09/01 02:55:06;;;;;;;1.63;0.93;;;12.60;99.90;;;;;;5015282;28;20426;-72
2022/09/01 02:57:33;;;;;;;0.80;0.80;;;12.60;1.00;;;;;;5031398;28;20420;-74
2022/09/01 02:59:59;;;;;;;1.15;0.90;;;12.60;99.90;;;;;;5031710;28;20508;-72
2022/09/01 03:02:27;;;;;;;1.50;0.65;;;12.60;99.90;;;;;;5031916;28;20045;-72
2022/09/01 03:04:54;;;;;;;1.15;0.77;;;12.60;99.90;;;;;;5031481;28;20072;-75
2022/09/01 03:07:22;;;;;;;3.22;1.08;;;12.60;99.90;;;;;;5031479;28;20045;-74
2022/09/01 03:09:49;;;;;;;0.88;0.68;;;12.70;99.90;;;;;;5031470;28;20046;-71
2022/09/01 03:12:15;;;;;;;2.50;0.88;;;12.50;99.90;;;;;;5015337;28;20550;-72
2022/09/01 03:14:40;;;;;;;0.77;0.70;;;12.70;99.90;;;;;;5014980;28;20408;-73
2022/09/01 03:17:06;;;;;;;1.05;0.90;;;12.50;99.90;;;;;;5015082;28;20052;-72
2022/09/01 03:19:35;;;;;;;0.50;0.50;;;12.50;99.90;;;;;;5014924;28;20043;-74
2022/09/01 03:22:01;;;;;;;0.73;0.57;;;12.50;99.90;;;;;;5015468;28;20041;-72
2022/09/01 03:24:27;;;;;;;0.90;0.73;;;12.50;99.90;;;;;;4998616;28;20056;-71
2022/09/01 03:26:53;;;;;;;1.02;0.68;;;12.50;99.90;;;;;;5015110;28;20466;-70
2022/09/01 03:29:19;;;;;;;0.80;0.80;;;12.50;99.90;;;;;;5014943;28;20064;-75
2022/09/01 03:31:45;;;;;;;1.52;0.60;;;12.40;1.00;;;;;;5031291;28;20041;-70
2022/09/01 03:34:11;;;;;;;0.70;0.70;;;12.40;99.90;;;;;;5015100;28;20200;-70
2022/09/01 03:36:38;;;;;;;0.85;0.68;;;12.40;99.90;;;;;;5000503;28;20155;-74
2022/09/01 03:39:06;;;;;;;2.90;1.10;;;12.40;1.00;;;;;;5018694;28;20488;-74
2022/09/01 03:41:31;;;;;;;1.30;0.80;;;12.40;1.00;;;;;;5018272;28;20037;-75
2022/09/01 03:43:58;;;;;;;1.85;0.80;;;12.30;1.00;;;;;;5034820;28;20400;-75
2022/09/01 03:46:25;;;;;;;1.80;0.70;;;12.30;3.80;;;;;;5018315;28;20112;-70
2022/09/01 03:48:57;;;;;;;1.05;0.80;;;12.30;99.90;;;;;;5018308;28;20045;-73
2022/09/01 03:51:24;;;;;;;1.50;0.90;;;12.20;62.50;;;;;;5018229;28;20077;-70
2022/09/01 03:53:56;;;;;;;1.80;0.90;;;12.30;99.90;;;;;;5001858;28;20404;-70
2022/09/01 03:56:24;;;;;;;1.08;0.80;;;13.00;1.00;;;;;;5034680;28;20065;-71
2022/09/01 03:58:50;;;;;;;1.17;0.82;;;12.20;78.70;;;;;;5036055;28;20053;-71
2022/09/01 04:01:18;;;;;;;0.60;0.60;;;12.30;1.00;;;;;;5034528;28;20059;-71
2022/09/01 04:03:47;;;;;;;1.48;1.05;;;12.20;1.00;;;;;;5034545;28;20045;-73
2022/09/01 04:06:14;;;;;;;2.75;0.90;;;12.20;1.00;;;;;;5034504;28;20034;-71
2022/09/01 04:08:39;;;;;;;1.50;0.88;;;12.10;1.00;;;;;;5017830;28;20033;-73
2022/09/01 04:11:17;;;;;;;1.00;0.90;;;12.10;99.90;;;;;;5034599;28;20079;-73
2022/09/01 04:13:43;;;;;;;1.25;0.93;;;12.10;1.00;;;;;;5034569;28;20077;-73
2022/09/01 04:19:19;;;;;;;1.30;0.88;;;12.00;99.90;;;;;;5034191;28;20099;-72
2022/09/01 04:21:46;;;;;;;0.85;0.70;;;12.10;99.90;;;;;;5002048;28;20041;-74
2022/09/01 04:24:14;;;;;;;0.93;0.70;;;12.10;99.90;;;;;;5001661;28;20480;-71
2022/09/01 04:26:41;;;;;;;1.23;0.80;;;12.10;99.90;;;;;;5034001;28;20073;-70
2022/09/01 04:29:07;;;;;;;1.48;1.00;;;12.10;99.90;;;;;;5001194;28;20385;-74
2022/09/01 04:31:36;;;;;;;1.00;0.85;;;12.00;1.00;;;;;;5017651;28;20045;-74
2022/09/01 04:34:08;;;;;;;1.08;0.80;;;12.10;99.90;;;;;;5017595;28;20412;-74
2022/09/01 04:36:34;;;;;;;2.28;0.93;;;12.00;99.90;;;;;;5018192;28;20496;-71
2022/09/01 04:39:07;;;;;;;1.70;0.80;;;12.10;99.90;;;;;;5017634;28;20048;-74
2022/09/01 04:41:36;;;;;;;1.65;0.98;;;12.10;99.90;;;;;;5033788;28;20037;-70
2022/09/01 04:44:04;;;;;;;1.00;0.80;;;12.30;99.90;;;;;;5017250;28;20042;-70
2022/09/01 04:46:34;;;;;;;1.33;0.93;;;12.00;99.90;;;;;;5017287;28;20037;-75
2022/09/01 04:49:05;;;;;;;0.80;0.80;;;12.00;1.00;;;;;;5032815;28;20033;-70
2022/09/01 04:51:32;;;;;;;1.17;0.88;;;12.00;1.00;;;;;;5033828;28;20099;-73
2022/09/01 04:53:58;;;;;;;0.70;0.70;;;12.00;99.90;;;;;;5017377;28;20044;-71
2022/09/01 04:56:25;;;;;;;1.30;0.80;;;12.00;99.90;;;;;;5033418;28;20093;-75
2022/09/01 04:58:54;;;;;;;1.10;1.00;;;12.00;1.00;;;;;;5033703;28;20047;-71
2022/09/01 05:01:23;;;;;;;0.73;0.73;;;12.00;99.90;;;;;;5033462;28;20049;-73
2022/09/01 05:03:56;;;;;;;0.73;0.73;;;12.00;99.90;;;;;;5016875;28;20125;-74
2022/09/01 05:06:22;;;;;;;1.17;1.00;;;12.00;99.90;;;;;;5016758;28;20050;-71
2022/09/01 05:08:48;;;;;;;1.83;1.02;;;12.10;99.90;;;;;;5016793;28;20428;-72
2022/09/01 05:11:18;;;;;;;2.35;1.05;;;12.10;99.90;;;;;;5033114;28;20127;-74
2022/09/01 05:13:46;;;;;;;1.35;0.90;;;12.10;99.90;;;;;;5033317;28;20053;-71
2022/09/01 05:16:14;;;;;;;1.17;0.90;;;12.10;1.00;;;;;;5033184;28;20081;-73
2022/09/01 05:18:48;;;;;;;1.35;0.80;;;12.10;79.90;;;;;;5033075;28;20451;-74
2022/09/01 05:21:18;;;;;;;1.35;0.90;;;12.10;1.00;;;;;;5032927;28;20079;-72
2022/09/01 05:23:45;;;;;;;1.65;1.08;;;12.20;99.90;;;;;;5016412;28;20029;-70
2022/09/01 05:26:20;;;;;;;2.08;1.20;;;12.20;82.30;;;;;;5016851;28;20090;-70
2022/09/01 05:28:52;;;;;;;1.02;0.88;;;12.20;81.70;;;;;;5033078;28;20057;-75
2022/09/01 05:31:18;;;;;;;1.02;0.93;;;12.30;1.00;;;;;;5033251;28;20488;-70
2022/09/01 05:33:47;;;;;;;2.28;1.25;;;12.30;1.00;;;;;;5000202;28;20081;-73
2022/09/01 05:36:16;;;;;;;1.02;0.80;;;12.60;99.60;;;;;;5033038;28;20041;-71
2022/09/01 05:38:43;;;;;;;1.67;1.08;;;13.40;99.90;;;;;;5016332;28;20127;-75
2022/09/01 05:41:13;;;;;;;2.33;1.25;;;12.50;24.70;;;;;;5032747;28;20041;-70
2022/09/01 05:43:45;;;;;;;1.20;1.00;;;12.50;99.90;;;;;;5032539;28;20508;-74
2022/09/01 05:46:15;;;;;;;1.75;1.13;;;12.60;99.90;;;;;;5017099;28;20044;-70
2022/09/01 05:48:45;;;;;;;1.95;0.82;;;12.60;1.00;;;;;;5016858;28;20052;-74
2022/09/01 05:51:16;;;;;;;1.50;1.13;;;12.70;99.90;;;;;;5000978;28;20459;-71
2022/09/01 05:53:43;;;;;;;1.80;1.20;;;12.80;99.90;;;;;;5032884;28;20056;-73
2022/09/01 05:56:12;;;;;;;0.85;0.85;;;12.80;99.90;;;;;;5032479;28;20065;-71
2022/09/01 05:58:39;;;;;;;1.33;1.00;;;12.90;1.00;;;;;;5015994;28;20045;-75
2022/09/01 06:01:05;;;;;;;2.83;1.30;;;13.00;99.90;;;;;;5032568;28;20579;-71
2022/09/01 06:03:32;;;;;;;1.42;1.02;;;13.00;99.90;;;;;;5016707;28;20048;-78
2022/09/01 06:06:07;;;;;;;1.90;0.88;;;13.30;99.90;;;;;;5032229;28;20037;-71
2022/09/01 06:08:35;;;;;;;3.17;1.40;;;13.20;99.90;;;;;;5032187;28;20095;-79
2022/09/01 06:11:02;;;;;;;2.67;0.90;;;13.20;99.90;;;;;;5016054;28;20496;-75
2022/09/01 06:13:28;;;;;;;1.25;1.05;;;13.30;1.00;;;;;;5015818;28;20049;-75
2022/09/01 06:15:57;;;;;;;1.75;1.30;;;13.40;99.90;;;;;;5015706;28;20077;-75
2022/09/01 06:18:23;;;;;;;1.50;1.13;;;13.40;1.00;;;;;;5031972;28;20042;-78
2022/09/01 06:20:49;;;;;;;3.70;1.13;;;13.50;99.90;;;;;;5015431;28;20052;-79
2022/09/01 06:23:16;;;;;;;2.50;1.10;;;13.50;67.50;;;;;;5032110;28;20103;-73
2022/09/01 06:25:46;;;;;;;1.70;1.00;;;13.60;30.60;;;;;;5015426;28;20037;-75
2022/09/01 06:28:17;;;;;;;1.55;1.00;;;13.70;1.00;;;;;;5031871;28;20038;-72
2022/09/01 06:30:44;;;;;;;1.85;1.40;;;13.80;99.90;;;;;;5015434;28;20045;-71
2022/09/01 06:33:12;;;;;;;1.98;1.35;;;13.90;99.90;;;;;;5031882;28;20048;-73
2022/09/01 06:35:40;;;;;;;1.35;0.98;;;14.10;1.00;;;;;;5015334;28;20045;-73
2022/09/01 06:38:08;;;;;;;1.60;1.23;;;14.20;99.90;;;;;;5032008;28;20041;-78
2022/09/01 06:40:40;;;;;;;1.35;1.10;;;14.30;1.00;;;;;;5032329;28;20052;-77
2022/09/01 06:43:07;;;;;;;1.60;0.80;;;14.50;99.90;;;;;;5031828;28;20423;-82
2022/09/01 06:45:41;;;;;;;2.17;1.23;;;14.60;99.90;;;;;;5016140;28;20040;-81
2022/09/01 06:48:07;;;;;;;2.63;1.30;;;14.70;99.90;;;;;;5031911;28;20120;-77
2022/09/01 06:50:33;;;;;;;2.47;1.02;;;14.90;90.20;;;;;;5015384;28;20037;-76
2022/09/01 06:53:12;;;;;;;1.65;0.90;;;15.10;99.90;;;;;;5031753;28;20048;-77
2022/09/01 06:55:40;;;;;;;1.55;1.20;;;15.20;99.90;;;;;;5002332;28;20485;-72
2022/09/01 06:58:10;;;;;;;1.90;1.20;;;15.30;99.90;;;;;;5031634;28;20048;-73
2022/09/01 07:00:40;;;;;;;1.67;1.27;;;15.40;74.50;;;;;;5015657;28;20050;-75
2022/09/01 07:03:13;;;;;;;2.13;1.08;;;15.60;99.90;;;;;;5015747;28;20542;-76
2022/09/01 07:05:48;;;;;;;1.77;1.05;;;15.80;99.90;;;;;;5015112;28;20381;-76
2022/09/01 07:08:20;;;;;;;1.27;0.93;;;15.90;99.90;;;;;;5031601;28;20049;-72
2022/09/01 07:10:49;;;;;;;2.22;1.10;;;15.90;1.00;;;;;;5016103;28;20053;-72
2022/09/01 07:13:21;;;;;;;1.42;1.17;;;16.00;99.90;;;;;;5019446;28;20498;-76
2022/09/01 07:15:48;;;;;;;4.25;1.33;;;16.30;99.90;;;;;;5035417;28;20049;-72
2022/09/01 07:18:20;;;;;;;1.67;1.13;;;16.40;26.20;;;;;;5035327;28;20099;-73
2022/09/01 07:20:47;;;;;;;1.30;1.10;;;16.40;99.90;;;;;;5035496;28;20045;-73
2022/09/01 07:23:18;;;;;;;2.92;1.42;;;16.60;99.90;;;;;;5035317;28;20120;-76
2022/09/01 07:25:47;;;;;;;2.80;1.33;;;16.70;99.90;;;;;;5035559;28;20515;-76
2022/09/01 07:28:14;;;;;;;2.58;1.35;;;16.80;99.90;;;;;;5035293;28;20137;-71
2022/09/01 07:30:44;;;;;;;5.07;1.65;;;16.90;99.90;;;;;;5035524;28;20534;-75
2022/09/01 07:33:10;;;;;;;1.67;1.20;;;17.10;99.90;;;;;;5035508;28;20084;-76
2022/09/01 07:35:38;;;;;;;2.22;1.02;;;17.20;99.90;;;;;;5018589;28;20037;-71
2022/09/01 07:38:06;;;;;;;1.40;1.00;;;17.30;99.90;;;;;;5035168;28;20423;-74
2022/09/01 07:40:36;;;;;;;4.22;1.10;;;17.40;99.90;;;;;;5018890;28;20042;-72
2022/09/01 07:43:07;;;;;;;1.60;0.90;;;17.30;68.50;;;;;;5019142;28;20042;-70
2022/09/01 07:45:36;;;;;;;1.75;1.15;;;17.50;72.60;;;;;;5034869;28;20120;-75
2022/09/01 07:48:06;;;;;;;1.90;1.13;;;17.50;73.00;;;;;;5018870;28;20385;-75
2022/09/01 07:50:34;;;;;;;2.22;1.20;;;17.60;85.80;;;;;;5018210;28;20048;-70
2022/09/01 07:53:00;;;;;;;1.02;0.88;;;17.80;82.20;;;;;;5034748;28;20095;-75
2022/09/01 07:55:27;;;;;;;2.13;1.00;;;17.90;51.80;;;;;;5002017;28;20484;-74
2022/09/01 07:57:53;;;;;;;3.35;0.98;;;17.90;36.30;;;;;;5034895;28;20051;-75
2022/09/01 08:00:20;;;;;;;4.40;1.40;;;18.00;41.80;;;;;;5001903;28;20056;-73
2022/09/01 08:02:46;;;;;;;2.13;1.48;;;18.10;24.40;;;;;;5001985;28;20036;-74
2022/09/01 08:05:17;;;;;;;1.55;1.30;;;18.20;18.30;;;;;;5018118;28;20120;-74
2022/09/01 08:07:46;;;;;;;;;;;18.30;25.00;;;;;;5018409;28;20029;-78
2022/09/01 08:10:12;;;;;;;1.48;0.93;;;18.40;14.40;;;;;;5034313;28;20303;-73
2022/09/01 08:12:37;;;;;;;1.00;0.82;;;18.50;12.30;;;;;;5018137;28;20037;-77
2022/09/01 08:15:05;;;;;;;2.25;1.20;;;18.60;3.90;;;;;;5001874;28;20045;-73
2022/09/01 08:17:32;;;;;;;2.42;1.17;;;18.70;3.70;;;;;;5034506;28;20100;-72
2022/09/01 08:19:57;;;;;;;1.92;0.95;;;18.80;1.00;;;;;;5017707;28;20386;-73
2022/09/01 08:22:24;;;;;;;0.88;0.73;;;18.90;1.00;;;;;;5016677;28;20128;-71
2022/09/01 08:24:53;;;;;;;1.05;0.70;;;19.00;1.00;;;;;;5034324;28;20492;-73
2022/09/01 08:27:19;;;;;;;2.38;1.05;;;19.10;1.00;;;;;;5017604;28;20037;-72
2022/09/01 08:29:45;;;;;;;1.15;0.90;;;19.30;1.00;;;;;;5033900;28;20098;-72
2022/09/01 08:32:11;;;;;;;3.20;1.13;;;19.30;1.00;;;;;;5017532;28;20401;-75
2022/09/01 08:34:37;;;;;;;1.88;1.00;;;19.40;1.00;;;;;;5001400;28;20154;-72
2022/09/01 08:37:04;;;;;;;0.98;0.85;;;19.50;1.00;;;;;;5033941;28;20072;-75
2022/09/01 08:39:30;;;;;;;1.55;0.90;;;19.50;1.00;;;;;;5033723;28;20045;-72
2022/09/01 08:42:14;;;;;;;1.42;0.82;;;19.60;1.00;;;;;;5017247;28;20503;-75
2022/09/01 08:44:54;;;;;;;0.65;0.60;;;19.70;1.00;;;;;;5017420;28;20037;-75
2022/09/01 08:47:20;;;;;;;0.77;0.63;;;19.70;1.00;;;;;;5017261;28;20037;-75
2022/09/01 08:49:47;;;;;;;2.10;0.85;;;19.80;1.00;;;;;;5017470;28;20052;-75
2022/09/01 08:52:39;;;;;;;2.17;0.98;;;19.80;1.00;;;;;;5017379;28;20041;-72
2022/09/01 08:55:07;;;;;;;1.42;0.85;;;19.90;1.00;;;;;;5034846;28;20045;-74
2022/09/01 08:57:38;;;;;;;0.90;0.70;;;19.90;1.00;;;;;;5033378;28;20058;-75
2022/09/01 09:00:10;;;;;;;0.68;0.68;;;20.00;1.00;;;;;;5016929;28;20081;-71
2022/09/01 09:02:55;;;;;;;0.68;0.60;;;20.10;1.00;;;;;;5017287;28;20041;-74
2022/09/01 09:05:58;;;;;;;1.45;0.73;;;20.10;1.00;;;;;;5016964;28;20072;-73
2022/09/01 09:08:45;;;;;;;1.80;0.70;;;20.30;1.00;;;;;;5033322;28;20378;-74
2022/09/01 09:11:23;;;;;;;0.80;0.70;;;20.40;33.70;;;;;;5033308;28;20054;-73
2022/09/01 09:14:27;;;;;;;0.70;0.50;;;20.30;90.30;;;;;;5033336;28;20041;-72
2022/09/01 09:16:55;;;;;;;0.73;0.60;;;20.30;40.00;;;;;;4996034;28;20077;-71
2022/09/01 09:19:26;;;;;;;0.80;0.50;;;20.40;82.40;;;;;;4996043;28;20468;-74
2022/09/01 09:21:53;;;;;;;1.17;0.57;;;;;;;;;;5013796;28;20067;-75
2022/09/01 09:24:48;;;;;;;0.85;0.50;;;20.50;55.30;;;;;;5032979;28;20052;-72
2022/09/01 09:27:25;;;;;;;1.08;0.63;;;20.90;99.90;;;;;;5016632;28;20378;-75
2022/09/01 09:29:56;;;;;;;0.55;0.55;;;;;;;;;;5032925;28;20046;-73
2022/09/01 09:32:22;;;;;;;;;;;20.80;1.00;;;;;;5017125;28;20041;-77
2022/09/01 09:34:49;;;;;;;0.93;0.50;;;20.90;99.90;;;;;;5016298;28;20356;-77
2022/09/01 09:37:27;;;;;;;0.80;0.50;;;20.90;1.00;;;;;;5032914;28;20053;-78
2022/09/01 09:40:19;;;;;;;2.28;0.60;;;21.00;1.00;;;;;;5032760;28;20129;-74
2022/09/01 09:42:53;;;;;;;2.78;0.50;;;20.90;1.00;;;;;;5032722;28;20042;-73
2022/09/01 09:45:33;;;;;;;3.03;0.55;;;21.00;99.90;;;;;;5016082;28;20080;-73
2022/09/01 09:48:03;;;;;;;0.60;0.50;;;21.10;1.00;;;;;;5032725;28;20037;-80
2022/09/01 09:50:42;;;;;;;0.30;0.30;;;21.10;1.00;;;;;;5020878;28;20443;-77
2022/09/01 09:53:27;;;;;;;0.40;0.40;;;21.30;1.00;;;;;;5017034;28;20108;-77
2022/09/01 09:56:20;;;;;;;0.70;0.47;;;21.40;1.00;;;;;;5032872;28;20408;-75
2022/09/01 09:58:47;;;;;;;0.60;0.40;;;21.50;1.00;;;;;;5034188;28;20456;-78
2022/09/01 10:01:22;;;;;;;0.55;0.43;;;21.60;1.00;;;;;;5018033;28;20046;-80
2022/09/01 10:03:51;;;;;;;0.60;0.30;;;21.70;1.00;;;;;;5016388;28;20039;-76
2022/09/01 10:06:36;;;;;;;0.45;0.40;;;21.80;1.00;;;;;;5033140;28;20124;-76
2022/09/01 10:09:13;;;;;;;0.82;0.60;;;21.90;1.00;;;;;;5016785;28;20041;-74
2022/09/01 10:11:47;;;;;;;0.40;0.40;;;20.70;1.00;;;;;;5032483;28;20437;-78
2022/09/01 10:14:24;;;;;;;0.90;0.45;;;22.20;1.00;;;;;;5032333;28;20037;-76
2022/09/01 10:16:57;;;;;;;0.43;0.32;;;22.50;1.00;;;;;;5016022;28;20125;-78
2022/09/01 10:19:26;;;;;;;0.57;0.40;;;22.60;1.00;;;;;;5032381;28;20120;-78
2022/09/01 10:21:52;;;;;;;0.25;0.25;;;22.70;1.00;;;;;;4999833;28;20048;-77
2022/09/01 10:24:27;;;;;;;0.57;0.43;;;22.50;1.00;;;;;;5016059;28;20481;-74
2022/09/01 10:27:00;;;;;;;0.70;0.30;;;22.70;1.00;;;;;;5031996;28;20116;-80
2022/09/01 10:29:47;;;;;;;0.60;0.30;;;22.60;1.00;;;;;;5033667;28;20072;-81
2022/09/01 10:32:19;;;;;;;0.65;0.50;;;22.70;1.00;;;;;;5015724;28;20511;-72
2022/09/01 10:34:46;;;;;;;0.75;0.45;;;22.90;1.00;;;;;;5015333;28;20100;-73
2022/09/01 10:37:13;;;;;;;0.40;0.35;;;22.80;1.00;;;;;;5031778;28;20041;-71
2022/09/01 10:40:11;;;;;;;0.32;0.20;;;22.70;1.00;;;;;;5015415;28;20037;-71
2022/09/01 10:42:37;;;;;;;0.60;0.47;;;22.70;1.00;;;;;;5023176;28;20057;-71
2022/09/01 10:45:04;;;;;;;0.90;0.30;;;22.90;1.00;;;;;;5015234;28;20061;-72
2022/09/01 10:47:32;;;;;;;0.30;0.30;;;22.80;1.00;;;;;;5031326;28;20041;-75
2022/09/01 10:50:26;;;;;;;1.60;0.40;;;22.80;1.00;;;;;;5015504;28;20392;-71
2022/09/01 10:52:58;;;;;;;0.40;0.40;;;22.80;1.00;;;;;;5031550;28;20052;-75
2022/09/01 10:55:33;;;;;;;0.35;0.30;;;23.00;1.00;;;;;;5031880;28;20041;-70
2022/09/01 10:58:37;;;;;;;2.05;0.40;;;23.20;1.00;;;;;;5031615;28;20049;-70
2022/09/01 11:01:03;;;;;;;0.35;0.30;;;23.10;1.00;;;;;;5031646;28;20408;-72
2022/09/01 11:03:49;;;;;;;0.20;0.20;;;23.00;1.00;;;;;;5015410;28;20048;-74
2022/09/01 11:06:57;;;;;;;0.57;0.43;;;22.80;1.00;;;;;;5015077;28;20049;-76
2022/09/01 11:09:37;;;;;;;1.25;0.30;;;22.40;1.00;;;;;;5031676;28;20048;-76
2022/09/01 11:12:21;;;;;;;0.65;0.35;;;22.40;1.00;;;;;;5015154;28;20139;-75
2022/09/01 11:15:12;;;;;;;1.95;0.35;;;22.60;1.00;;;;;;5031316;28;20049;-76
2022/09/01 11:17:58;;;;;;;0.40;0.30;;;22.90;1.00;;;;;;5031526;28;20119;-76
2022/09/01 11:20:24;;;;;;;0.30;0.30;;;23.10;1.00;;;;;;4998594;28;20081;-73
2022/09/01 11:22:56;;;;;;;0.60;0.35;;;23.10;1.00;;;;;;5031314;28;20122;-75
2022/09/01 11:25:47;;;;;;;1.20;0.57;;;23.30;1.00;;;;;;5031427;28;20412;-73
2022/09/01 11:28:15;;;;;;;0.70;0.40;;;23.20;1.00;;;;;;5031351;28;20041;-76
2022/09/01 11:30:53;;;;;;;0.32;0.22;;;23.00;1.00;;;;;;5031599;28;20140;-75
2022/09/01 11:33:41;;;;;;;0.93;0.40;;;23.00;1.00;;;;;;5015082;28;20132;-72
2022/09/01 11:36:18;;;;;;;0.40;0.30;;;23.20;1.00;;;;;;5031511;28;20562;-72
2022/09/01 11:38:49;;;;;;;0.80;0.40;;;23.10;64.80;;;;;;5031232;28;20041;-75
2022/09/01 11:41:40;;;;;;;2.00;0.52;;;23.40;99.90;;;;;;5031240;28;20443;-73
2022/09/01 11:44:47;;;;;;;1.13;0.40;;;23.30;54.90;;;;;;5031158;28;20389;-72
2022/09/01 11:47:37;;;;;;;0.68;0.40;;;23.50;41.10;;;;;;5025365;28;20045;-73
2022/09/01 11:50:31;;;;;;;0.20;0.20;;;23.30;36.40;;;;;;5031124;28;20037;-72
2022/09/01 11:53:02;;;;;;;0.77;0.30;;;23.40;35.40;;;;;;5030246;28;20516;-72
2022/09/01 11:55:39;;;;;;;0.35;0.30;;;23.30;89.60;;;;;;5014407;28;20044;-75
2022/09/01 11:58:10;;;;;;;0.35;0.30;;;23.40;87.10;;;;;;5017242;28;20049;-73
2022/09/01 12:00:39;;;;;;;0.38;0.38;;;23.30;87.70;;;;;;5002567;28;20580;-76
2022/09/01 12:03:22;;;;;;;0.45;0.30;;;23.30;88.00;;;;;;5034848;28;20459;-73
2022/09/01 12:05:58;;;;;;;0.75;0.32;;;23.50;34.60;;;;;;5034793;28;20033;-72
2022/09/01 12:08:29;;;;;;;0.30;0.20;;;23.50;85.30;;;;;;5034812;28;20523;-76
2022/09/01 12:11:10;;;;;;;0.30;0.30;;;;;;;;;;5034778;28;20058;-74
2022/09/01 12:13:37;;;;;;;0.40;0.30;;;23.50;1.00;;;;;;5017887;28;20041;-75
2022/09/01 12:16:06;;;;;;;0.45;0.40;;;23.60;1.00;;;;;;5034376;28;20045;-73
2022/09/01 12:18:36;;;;;;;2.58;0.30;;;23.80;1.00;;;;;;5017693;28;20124;-75
2022/09/01 12:21:03;;;;;;;0.43;0.30;;;23.90;1.00;;;;;;5034263;28;20045;-77
2022/09/01 12:23:44;;;;;;;0.50;0.30;;;23.90;1.00;;;;;;5017633;28;20041;-76
2022/09/01 12:26:26;;;;;;;0.45;0.35;;;24.00;1.00;;;;;;5034260;28;20104;-72
2022/09/01 12:28:52;;;;;;;0.45;0.30;;;23.80;1.00;;;;;;5034104;28;20068;-77
2022/09/01 12:31:23;;;;;;;1.38;0.30;;;23.90;1.00;;;;;;5001261;28;20374;-73
2022/09/01 12:33:51;;;;;;;0.65;0.47;;;24.00;1.00;;;;;;5034047;28;20041;-73
2022/09/01 12:36:27;;;;;;;1.02;0.38;;;23.90;1.00;;;;;;5033918;28;20045;-73
2022/09/01 12:38:54;;;;;;;0.63;0.30;;;24.00;1.00;;;;;;5017436;28;20381;-72
2022/09/01 12:41:34;;;;;;;0.63;0.30;;;24.10;1.00;;;;;;5017510;28;20042;-72
2022/09/01 12:44:26;;;;;;;0.40;0.20;;;24.10;1.00;;;;;;5034304;28;20045;-76
2022/09/01 12:46:52;;;;;;;0.20;0.20;;;23.80;1.00;;;;;;5017456;28;20124;-77
2022/09/01 12:49:40;;;;;;;0.45;0.30;;;23.60;1.00;;;;;;5017213;28;20121;-77
2022/09/01 12:52:24;;;;;;;0.85;0.30;;;23.50;1.00;;;;;;5030761;28;20059;-77
2022/09/01 12:54:54;;;;;;;0.63;0.40;;;23.50;1.00;;;;;;5017558;28;20041;-76
2022/09/01 12:57:35;;;;;;;0.20;0.20;;;23.50;1.00;;;;;;5017166;28;20061;-78
2022/09/01 13:00:24;;;;;;;0.35;0.35;;;23.60;1.00;;;;;;5002398;28;20124;-78
2022/09/01 13:02:56;;;;;;;0.40;0.25;;;23.40;1.00;;;;;;5014259;28;20052;-76
2022/09/01 13:05:28;;;;;;;0.30;0.30;;;23.20;1.00;;;;;;5033639;28;20033;-77
2022/09/01 13:07:59;;;;;;;1.02;0.45;;;23.30;1.00;;;;;;5016666;28;20401;-77
2022/09/01 13:10:30;;;;;;;0.65;0.30;;;23.40;1.00;;;;;;5032886;28;20053;-72
2022/09/01 13:12:56;;;;;;;0.35;0.30;;;23.40;1.00;;;;;;5033386;28;20514;-72
2022/09/01 13:15:24;;;;;;;1.00;0.40;;;23.40;1.00;;;;;;5033357;28;20051;-72
2022/09/01 13:17:51;;;;;;;0.50;0.30;;;23.30;1.00;;;;;;5033022;28;20045;-73
2022/09/01 13:20:17;;;;;;;0.20;0.20;;;23.20;1.00;;;;;;5033342;28;20095;-76
2022/09/01 13:22:45;;;;;;;0.20;0.20;;;23.10;1.00;;;;;;5032937;28;20253;-73